sensor_id;sensor_type;location;lat;lon;timestamp;P1;durP1;ratioP1;P2;durP2;ratioP2
8183;SDS011;4133;48.752;9.088;2023-04-24T00:00:25;0.63;;;0.60;;
8183;SDS011;4133;48.752;9.088;2023-04-24T00:02:51;1.87;;;0.77;;
8183;SDS011;4133;48.752;9.088;2023-04-24T00:05:17;1.57;;;0.80;;
8183;SDS011;4133;48.752;9.088;2023-04-24T00:07:44;1.10;;;0.80;;
8183;SDS011;4133;48.752;9.088;2023-04-24T00:10:10;1.47;;;0.70;;
8183;SDS011;4133;48.752;9.088;2023-04-24T00:12:36;1.37;;;0.73;;
8183;SDS011;4133;48.752;9.088;2023-04-24T00:15:02;1.43;;;0.70;;
8183;SDS011;4133;48.752;9.088;2023-04-24T00:17:28;1.13;;;0.77;;
8183;SDS011;4133;48.752;9.088;2023-04-24T00:19:55;0.70;;;0.67;;
8183;SDS011;4133;48.752;9.088;2023-04-24T00:22:27;0.70;;;0.70;;
8183;SDS011;4133;48.752;9.088;2023-04-24T00:24:53;0.80;;;0.80;;
8183;SDS011;4133;48.752;9.088;2023-04-24T00:27:19;1.73;;;0.77;;
8183;SDS011;4133;48.752;9.088;2023-04-24T00:29:45;2.67;;;0.83;;
8183;SDS011;4133;48.752;9.088;2023-04-24T00:32:11;0.87;;;0.73;;
8183;SDS011;4133;48.752;9.088;2023-04-24T00:34:37;0.80;;;0.80;;
8183;SDS011;4133;48.752;9.088;2023-04-24T00:37:03;2.07;;;0.60;;
8183;SDS011;4133;48.752;9.088;2023-04-24T00:39:29;0.73;;;0.70;;
8183;SDS011;4133;48.752;9.088;2023-04-24T00:41:55;1.20;;;0.73;;
8183;SDS011;4133;48.752;9.088;2023-04-24T00:44:21;2.37;;;0.77;;
8183;SDS011;4133;48.752;9.088;2023-04-24T00:46:56;2.57;;;0.67;;
8183;SDS011;4133;48.752;9.088;2023-04-24T00:49:22;1.73;;;0.70;;
8183;SDS011;4133;48.752;9.088;2023-04-24T00:51:48;1.00;;;0.67;;
8183;SDS011;4133;48.752;9.088;2023-04-24T00:54:16;1.83;;;0.70;;
8183;SDS011;4133;48.752;9.088;2023-04-24T00:56:42;1.50;;;0.80;;
8183;SDS011;4133;48.752;9.088;2023-04-24T00:59:08;0.80;;;0.80;;
8183;SDS011;4133;48.752;9.088;2023-04-24T01:01:34;1.73;;;0.70;;
8183;SDS011;4133;48.752;9.088;2023-04-24T01:04:00;3.87;;;0.80;;
8183;SDS011;4133;48.752;9.088;2023-04-24T01:06:27;2.10;;;0.70;;
8183;SDS011;4133;48.752;9.088;2023-04-24T01:08:56;1.70;;;0.80;;
8183;SDS011;4133;48.752;9.088;2023-04-24T01:11:22;1.37;;;0.73;;
8183;SDS011;4133;48.752;9.088;2023-04-24T01:13:48;1.67;;;0.70;;
8183;SDS011;4133;48.752;9.088;2023-04-24T01:16:14;1.37;;;0.80;;
8183;SDS011;4133;48.752;9.088;2023-04-24T01:18:42;0.70;;;0.60;;
8183;SDS011;4133;48.752;9.088;2023-04-24T01:21:08;1.07;;;0.70;;
8183;SDS011;4133;48.752;9.088;2023-04-24T01:23:34;1.07;;;0.70;;
8183;SDS011;4133;48.752;9.088;2023-04-24T01:26:00;1.67;;;0.83;;
8183;SDS011;4133;48.752;9.088;2023-04-24T01:28:26;0.90;;;0.73;;
8183;SDS011;4133;48.752;9.088;2023-04-24T01:30:52;0.70;;;0.70;;
8183;SDS011;4133;48.752;9.088;2023-04-24T01:33:19;1.17;;;0.77;;
8183;SDS011;4133;48.752;9.088;2023-04-24T01:35:46;0.93;;;0.70;;
8183;SDS011;4133;48.752;9.088;2023-04-24T01:38:12;1.70;;;0.90;;
8183;SDS011;4133;48.752;9.088;2023-04-24T01:40:38;0.83;;;0.70;;
8183;SDS011;4133;48.752;9.088;2023-04-24T01:43:05;0.87;;;0.77;;
8183;SDS011;4133;48.752;9.088;2023-04-24T01:45:31;3.13;;;0.90;;
8183;SDS011;4133;48.752;9.088;2023-04-24T01:48:00;2.10;;;0.80;;
8183;SDS011;4133;48.752;9.088;2023-04-24T01:50:26;2.53;;;0.80;;
8183;SDS011;4133;48.752;9.088;2023-04-24T01:52:52;1.63;;;0.97;;
8183;SDS011;4133;48.752;9.088;2023-04-24T01:55:18;1.40;;;0.70;;
8183;SDS011;4133;48.752;9.088;2023-04-24T01:57:44;2.40;;;0.80;;
8183;SDS011;4133;48.752;9.088;2023-04-24T02:00:10;0.70;;;0.70;;
8183;SDS011;4133;48.752;9.088;2023-04-24T02:02:37;0.53;;;0.53;;
8183;SDS011;4133;48.752;9.088;2023-04-24T02:05:05;1.57;;;0.90;;
8183;SDS011;4133;48.752;9.088;2023-04-24T02:07:31;1.00;;;0.80;;
8183;SDS011;4133;48.752;9.088;2023-04-24T02:09:57;0.97;;;0.90;;
8183;SDS011;4133;48.752;9.088;2023-04-24T02:12:23;1.37;;;0.80;;
8183;SDS011;4133;48.752;9.088;2023-04-24T02:14:49;0.90;;;0.90;;
8183;SDS011;4133;48.752;9.088;2023-04-24T02:17:15;1.90;;;0.80;;
8183;SDS011;4133;48.752;9.088;2023-04-24T02:19:42;1.30;;;0.80;;
8183;SDS011;4133;48.752;9.088;2023-04-24T02:22:08;3.00;;;0.77;;
8183;SDS011;4133;48.752;9.088;2023-04-24T02:24:35;1.43;;;0.80;;
8183;SDS011;4133;48.752;9.088;2023-04-24T02:27:01;1.10;;;0.80;;
8183;SDS011;4133;48.752;9.088;2023-04-24T02:29:27;1.23;;;0.93;;
8183;SDS011;4133;48.752;9.088;2023-04-24T02:31:53;2.30;;;0.60;;
8183;SDS011;4133;48.752;9.088;2023-04-24T02:34:19;2.00;;;0.90;;
8183;SDS011;4133;48.752;9.088;2023-04-24T02:36:45;0.80;;;0.80;;
8183;SDS011;4133;48.752;9.088;2023-04-24T02:39:11;1.77;;;0.80;;
8183;SDS011;4133;48.752;9.088;2023-04-24T02:41:38;2.30;;;0.77;;
8183;SDS011;4133;48.752;9.088;2023-04-24T02:44:04;1.37;;;0.80;;
8183;SDS011;4133;48.752;9.088;2023-04-24T02:46:32;2.40;;;1.00;;
8183;SDS011;4133;48.752;9.088;2023-04-24T02:48:58;1.50;;;1.00;;
8183;SDS011;4133;48.752;9.088;2023-04-24T02:51:24;3.93;;;0.83;;
8183;SDS011;4133;48.752;9.088;2023-04-24T02:53:50;0.73;;;0.70;;
8183;SDS011;4133;48.752;9.088;2023-04-24T02:56:16;1.43;;;0.90;;
8183;SDS011;4133;48.752;9.088;2023-04-24T02:58:42;0.87;;;0.87;;
8183;SDS011;4133;48.752;9.088;2023-04-24T03:01:08;1.33;;;1.10;;
8183;SDS011;4133;48.752;9.088;2023-04-24T03:03:37;1.83;;;0.90;;
8183;SDS011;4133;48.752;9.088;2023-04-24T03:06:03;2.27;;;1.20;;
8183;SDS011;4133;48.752;9.088;2023-04-24T03:08:31;2.10;;;0.87;;
8183;SDS011;4133;48.752;9.088;2023-04-24T03:10:57;2.77;;;0.93;;
8183;SDS011;4133;48.752;9.088;2023-04-24T03:13:23;3.70;;;1.17;;
8183;SDS011;4133;48.752;9.088;2023-04-24T03:15:49;3.43;;;0.80;;
8183;SDS011;4133;48.752;9.088;2023-04-24T03:18:15;1.83;;;1.00;;
8183;SDS011;4133;48.752;9.088;2023-04-24T03:20:41;1.93;;;1.10;;
8183;SDS011;4133;48.752;9.088;2023-04-24T03:23:07;0.90;;;0.80;;
8183;SDS011;4133;48.752;9.088;2023-04-24T03:25:33;1.33;;;0.97;;
8183;SDS011;4133;48.752;9.088;2023-04-24T03:27:59;5.93;;;1.33;;
8183;SDS011;4133;48.752;9.088;2023-04-24T03:30:25;1.80;;;0.80;;
8183;SDS011;4133;48.752;9.088;2023-04-24T03:32:51;1.20;;;1.00;;
8183;SDS011;4133;48.752;9.088;2023-04-24T03:35:17;1.07;;;0.97;;
8183;SDS011;4133;48.752;9.088;2023-04-24T03:37:43;2.17;;;0.80;;
8183;SDS011;4133;48.752;9.088;2023-04-24T03:40:09;1.20;;;1.00;;
8183;SDS011;4133;48.752;9.088;2023-04-24T03:42:35;1.17;;;1.00;;
8183;SDS011;4133;48.752;9.088;2023-04-24T03:45:01;0.80;;;0.80;;
8183;SDS011;4133;48.752;9.088;2023-04-24T03:47:41;0.80;;;0.73;;
8183;SDS011;4133;48.752;9.088;2023-04-24T03:50:07;1.80;;;1.00;;
8183;SDS011;4133;48.752;9.088;2023-04-24T03:52:33;1.87;;;1.10;;
8183;SDS011;4133;48.752;9.088;2023-04-24T03:55:00;1.63;;;0.70;;
8183;SDS011;4133;48.752;9.088;2023-04-24T03:57:26;1.03;;;0.70;;
8183;SDS011;4133;48.752;9.088;2023-04-24T03:59:52;0.90;;;0.90;;
8183;SDS011;4133;48.752;9.088;2023-04-24T04:02:18;1.37;;;1.00;;
8183;SDS011;4133;48.752;9.088;2023-04-24T04:04:45;2.37;;;0.70;;
8183;SDS011;4133;48.752;9.088;2023-04-24T04:07:11;0.70;;;0.70;;
8183;SDS011;4133;48.752;9.088;2023-04-24T04:09:37;3.23;;;1.10;;
8183;SDS011;4133;48.752;9.088;2023-04-24T04:12:04;1.57;;;0.80;;
8183;SDS011;4133;48.752;9.088;2023-04-24T04:14:30;1.27;;;0.60;;
8183;SDS011;4133;48.752;9.088;2023-04-24T04:16:56;1.40;;;0.77;;
8183;SDS011;4133;48.752;9.088;2023-04-24T04:19:22;1.90;;;1.10;;
8183;SDS011;4133;48.752;9.088;2023-04-24T04:21:48;2.13;;;0.70;;
8183;SDS011;4133;48.752;9.088;2023-04-24T04:24:18;1.33;;;0.80;;
8183;SDS011;4133;48.752;9.088;2023-04-24T04:26:45;2.83;;;0.90;;
8183;SDS011;4133;48.752;9.088;2023-04-24T04:29:12;1.43;;;0.90;;
8183;SDS011;4133;48.752;9.088;2023-04-24T04:31:38;1.00;;;1.00;;
8183;SDS011;4133;48.752;9.088;2023-04-24T04:34:04;1.27;;;0.77;;
8183;SDS011;4133;48.752;9.088;2023-04-24T04:36:30;7.37;;;1.10;;
8183;SDS011;4133;48.752;9.088;2023-04-24T04:38:57;1.37;;;1.10;;
8183;SDS011;4133;48.752;9.088;2023-04-24T04:41:24;2.10;;;1.10;;
8183;SDS011;4133;48.752;9.088;2023-04-24T04:43:51;2.33;;;1.30;;
8183;SDS011;4133;48.752;9.088;2023-04-24T04:48:52;1.53;;;1.10;;
8183;SDS011;4133;48.752;9.088;2023-04-24T04:51:19;1.53;;;1.40;;
8183;SDS011;4133;48.752;9.088;2023-04-24T04:53:45;1.67;;;1.27;;
8183;SDS011;4133;48.752;9.088;2023-04-24T04:56:11;1.67;;;1.40;;
8183;SDS011;4133;48.752;9.088;2023-04-24T04:58:37;3.40;;;2.53;;
8183;SDS011;4133;48.752;9.088;2023-04-24T05:01:03;1.40;;;1.30;;
8183;SDS011;4133;48.752;9.088;2023-04-24T05:03:29;1.40;;;1.30;;
8183;SDS011;4133;48.752;9.088;2023-04-24T05:05:55;1.40;;;1.30;;
8183;SDS011;4133;48.752;9.088;2023-04-24T05:08:23;3.33;;;1.40;;
8183;SDS011;4133;48.752;9.088;2023-04-24T05:10:49;2.07;;;1.23;;
8183;SDS011;4133;48.752;9.088;2023-04-24T05:13:14;1.23;;;1.13;;
8183;SDS011;4133;48.752;9.088;2023-04-24T05:15:40;2.50;;;1.30;;
8183;SDS011;4133;48.752;9.088;2023-04-24T05:18:06;1.47;;;1.30;;
8183;SDS011;4133;48.752;9.088;2023-04-24T05:20:32;2.60;;;1.20;;
8183;SDS011;4133;48.752;9.088;2023-04-24T05:22:58;1.23;;;1.23;;
8183;SDS011;4133;48.752;9.088;2023-04-24T05:25:24;2.60;;;1.20;;
8183;SDS011;4133;48.752;9.088;2023-04-24T05:27:50;1.43;;;1.37;;
8183;SDS011;4133;48.752;9.088;2023-04-24T05:30:18;2.53;;;1.40;;
8183;SDS011;4133;48.752;9.088;2023-04-24T05:32:44;3.90;;;1.30;;
8183;SDS011;4133;48.752;9.088;2023-04-24T05:35:11;1.50;;;1.40;;
8183;SDS011;4133;48.752;9.088;2023-04-24T05:37:37;2.90;;;1.47;;
8183;SDS011;4133;48.752;9.088;2023-04-24T05:40:03;1.47;;;1.37;;
8183;SDS011;4133;48.752;9.088;2023-04-24T05:42:30;1.73;;;1.40;;
8183;SDS011;4133;48.752;9.088;2023-04-24T05:44:56;2.17;;;1.60;;
8183;SDS011;4133;48.752;9.088;2023-04-24T05:47:22;1.33;;;1.23;;
8183;SDS011;4133;48.752;9.088;2023-04-24T05:49:48;1.60;;;1.50;;
8183;SDS011;4133;48.752;9.088;2023-04-24T05:52:14;2.83;;;1.60;;
8183;SDS011;4133;48.752;9.088;2023-04-24T05:54:40;1.53;;;1.43;;
8183;SDS011;4133;48.752;9.088;2023-04-24T05:57:06;2.00;;;1.20;;
8183;SDS011;4133;48.752;9.088;2023-04-24T05:59:36;2.93;;;1.53;;
8183;SDS011;4133;48.752;9.088;2023-04-24T06:02:03;1.60;;;1.50;;
8183;SDS011;4133;48.752;9.088;2023-04-24T06:04:30;1.63;;;1.53;;
8183;SDS011;4133;48.752;9.088;2023-04-24T06:06:56;1.83;;;1.60;;
8183;SDS011;4133;48.752;9.088;2023-04-24T06:09:22;4.33;;;1.70;;
8183;SDS011;4133;48.752;9.088;2023-04-24T06:11:49;2.90;;;1.70;;
8183;SDS011;4133;48.752;9.088;2023-04-24T06:14:17;2.43;;;1.90;;
8183;SDS011;4133;48.752;9.088;2023-04-24T06:16:43;3.27;;;1.80;;
8183;SDS011;4133;48.752;9.088;2023-04-24T06:19:09;3.67;;;1.80;;
8183;SDS011;4133;48.752;9.088;2023-04-24T06:21:35;2.30;;;1.97;;
8183;SDS011;4133;48.752;9.088;2023-04-24T06:24:01;1.80;;;1.60;;
8183;SDS011;4133;48.752;9.088;2023-04-24T06:26:28;4.03;;;1.80;;
8183;SDS011;4133;48.752;9.088;2023-04-24T06:28:54;1.90;;;1.67;;
8183;SDS011;4133;48.752;9.088;2023-04-24T06:31:21;1.60;;;1.50;;
8183;SDS011;4133;48.752;9.088;2023-04-24T06:33:47;2.03;;;1.50;;
8183;SDS011;4133;48.752;9.088;2023-04-24T06:36:14;1.50;;;1.40;;
8183;SDS011;4133;48.752;9.088;2023-04-24T06:38:40;1.67;;;1.57;;
8183;SDS011;4133;48.752;9.088;2023-04-24T06:41:06;1.80;;;1.70;;
8183;SDS011;4133;48.752;9.088;2023-04-24T06:43:34;2.30;;;1.60;;
8183;SDS011;4133;48.752;9.088;2023-04-24T06:46:00;1.90;;;1.60;;
8183;SDS011;4133;48.752;9.088;2023-04-24T06:48:28;2.60;;;1.83;;
8183;SDS011;4133;48.752;9.088;2023-04-24T06:50:54;1.70;;;1.60;;
8183;SDS011;4133;48.752;9.088;2023-04-24T06:53:20;2.03;;;1.63;;
8183;SDS011;4133;48.752;9.088;2023-04-24T06:55:46;1.70;;;1.60;;
8183;SDS011;4133;48.752;9.088;2023-04-24T06:58:13;1.63;;;1.50;;
8183;SDS011;4133;48.752;9.088;2023-04-24T07:00:40;2.37;;;1.33;;
8183;SDS011;4133;48.752;9.088;2023-04-24T07:03:06;2.60;;;1.23;;
8183;SDS011;4133;48.752;9.088;2023-04-24T07:05:32;3.47;;;1.60;;
8183;SDS011;4133;48.752;9.088;2023-04-24T07:08:00;2.37;;;1.37;;
8183;SDS011;4133;48.752;9.088;2023-04-24T07:10:26;2.85;;;1.50;;
8183;SDS011;4133;48.752;9.088;2023-04-24T07:12:53;2.73;;;1.60;;
8183;SDS011;4133;48.752;9.088;2023-04-24T07:15:19;3.23;;;2.03;;
8183;SDS011;4133;48.752;9.088;2023-04-24T07:17:45;1.50;;;1.40;;
8183;SDS011;4133;48.752;9.088;2023-04-24T07:20:11;1.10;;;1.03;;
8183;SDS011;4133;48.752;9.088;2023-04-24T07:22:39;1.33;;;1.20;;
8183;SDS011;4133;48.752;9.088;2023-04-24T07:25:05;1.83;;;1.30;;
8183;SDS011;4133;48.752;9.088;2023-04-24T07:27:32;2.67;;;1.27;;
8183;SDS011;4133;48.752;9.088;2023-04-24T07:29:58;1.98;;;1.40;;
8183;SDS011;4133;48.752;9.088;2023-04-24T07:32:24;1.70;;;1.27;;
8183;SDS011;4133;48.752;9.088;2023-04-24T07:34:50;1.30;;;1.20;;
8183;SDS011;4133;48.752;9.088;2023-04-24T07:37:16;1.53;;;1.10;;
8183;SDS011;4133;48.752;9.088;2023-04-24T07:39:42;1.52;;;1.27;;
8183;SDS011;4133;48.752;9.088;2023-04-24T07:42:08;2.30;;;1.10;;
8183;SDS011;4133;48.752;9.088;2023-04-24T07:44:34;3.30;;;1.20;;
8183;SDS011;4133;48.752;9.088;2023-04-24T07:47:01;2.77;;;1.17;;
8183;SDS011;4133;48.752;9.088;2023-04-24T07:49:27;2.70;;;1.57;;
8183;SDS011;4133;48.752;9.088;2023-04-24T07:51:53;1.35;;;0.98;;
8183;SDS011;4133;48.752;9.088;2023-04-24T07:54:19;1.37;;;1.17;;
8183;SDS011;4133;48.752;9.088;2023-04-24T07:56:45;3.33;;;1.30;;
8183;SDS011;4133;48.752;9.088;2023-04-24T07:59:11;1.27;;;1.17;;
8183;SDS011;4133;48.752;9.088;2023-04-24T08:01:37;1.48;;;1.13;;
8183;SDS011;4133;48.752;9.088;2023-04-24T08:04:03;1.43;;;1.10;;
8183;SDS011;4133;48.752;9.088;2023-04-24T08:06:29;2.40;;;1.10;;
8183;SDS011;4133;48.752;9.088;2023-04-24T08:08:56;1.53;;;1.20;;
8183;SDS011;4133;48.752;9.088;2023-04-24T08:11:22;2.60;;;0.93;;
8183;SDS011;4133;48.752;9.088;2023-04-24T08:13:48;3.00;;;1.25;;
8183;SDS011;4133;48.752;9.088;2023-04-24T08:16:15;1.50;;;1.03;;
8183;SDS011;4133;48.752;9.088;2023-04-24T08:18:40;1.87;;;1.20;;
8183;SDS011;4133;48.752;9.088;2023-04-24T08:21:06;1.92;;;1.27;;
8183;SDS011;4133;48.752;9.088;2023-04-24T08:23:32;2.40;;;1.27;;
8183;SDS011;4133;48.752;9.088;2023-04-24T08:25:58;1.58;;;1.30;;
8183;SDS011;4133;48.752;9.088;2023-04-24T08:28:24;1.20;;;1.03;;
8183;SDS011;4133;48.752;9.088;2023-04-24T08:30:50;1.57;;;0.97;;
8183;SDS011;4133;48.752;9.088;2023-04-24T08:33:22;2.13;;;0.93;;
8183;SDS011;4133;48.752;9.088;2023-04-24T08:35:48;3.73;;;1.00;;
8183;SDS011;4133;48.752;9.088;2023-04-24T08:38:15;3.00;;;1.20;;
8183;SDS011;4133;48.752;9.088;2023-04-24T08:40:41;3.78;;;1.30;;
8183;SDS011;4133;48.752;9.088;2023-04-24T08:43:09;4.03;;;1.10;;
8183;SDS011;4133;48.752;9.088;2023-04-24T08:45:36;1.70;;;1.20;;
8183;SDS011;4133;48.752;9.088;2023-04-24T08:48:03;1.85;;;1.10;;
8183;SDS011;4133;48.752;9.088;2023-04-24T08:50:30;1.23;;;1.13;;
8183;SDS011;4133;48.752;9.088;2023-04-24T08:52:57;0.90;;;0.90;;
8183;SDS011;4133;48.752;9.088;2023-04-24T08:55:23;1.07;;;1.03;;
8183;SDS011;4133;48.752;9.088;2023-04-24T08:57:51;1.23;;;1.00;;
8183;SDS011;4133;48.752;9.088;2023-04-24T09:00:18;1.20;;;1.10;;
8183;SDS011;4133;48.752;9.088;2023-04-24T09:02:44;2.08;;;1.30;;
8183;SDS011;4133;48.752;9.088;2023-04-24T09:05:11;1.93;;;1.50;;
8183;SDS011;4133;48.752;9.088;2023-04-24T09:07:39;2.47;;;2.03;;
8183;SDS011;4133;48.752;9.088;2023-04-24T09:10:05;2.27;;;1.30;;
8183;SDS011;4133;48.752;9.088;2023-04-24T09:12:32;1.47;;;1.13;;
8183;SDS011;4133;48.752;9.088;2023-04-24T09:14:58;2.77;;;1.10;;
8183;SDS011;4133;48.752;9.088;2023-04-24T09:17:25;1.67;;;1.10;;
8183;SDS011;4133;48.752;9.088;2023-04-24T09:19:53;1.30;;;1.20;;
8183;SDS011;4133;48.752;9.088;2023-04-24T09:22:19;2.33;;;1.23;;
8183;SDS011;4133;48.752;9.088;2023-04-24T09:24:45;2.43;;;1.50;;
8183;SDS011;4133;48.752;9.088;2023-04-24T09:27:11;1.47;;;1.20;;
8183;SDS011;4133;48.752;9.088;2023-04-24T09:29:38;1.30;;;1.20;;
8183;SDS011;4133;48.752;9.088;2023-04-24T09:32:20;1.17;;;1.10;;
8183;SDS011;4133;48.752;9.088;2023-04-24T09:35:04;1.20;;;1.10;;
8183;SDS011;4133;48.752;9.088;2023-04-24T09:37:34;2.10;;;1.40;;
8183;SDS011;4133;48.752;9.088;2023-04-24T09:40:14;1.03;;;1.00;;
8183;SDS011;4133;48.752;9.088;2023-04-24T09:42:59;8.43;;;1.77;;
8183;SDS011;4133;48.752;9.088;2023-04-24T09:45:31;3.87;;;1.30;;
8183;SDS011;4133;48.752;9.088;2023-04-24T09:48:00;1.40;;;1.20;;
8183;SDS011;4133;48.752;9.088;2023-04-24T09:50:26;1.90;;;1.40;;
8183;SDS011;4133;48.752;9.088;2023-04-24T09:52:59;9.93;;;1.50;;
8183;SDS011;4133;48.752;9.088;2023-04-24T09:55:27;1.17;;;1.00;;
8183;SDS011;4133;48.752;9.088;2023-04-24T09:57:57;2.35;;;1.10;;
8183;SDS011;4133;48.752;9.088;2023-04-24T10:00:26;1.00;;;0.90;;
8183;SDS011;4133;48.752;9.088;2023-04-24T10:02:59;1.83;;;1.10;;
8183;SDS011;4133;48.752;9.088;2023-04-24T10:05:29;1.00;;;0.90;;
8183;SDS011;4133;48.752;9.088;2023-04-24T10:07:56;2.07;;;1.00;;
8183;SDS011;4133;48.752;9.088;2023-04-24T10:10:23;1.17;;;1.07;;
8183;SDS011;4133;48.752;9.088;2023-04-24T10:12:49;2.00;;;1.02;;
8183;SDS011;4133;48.752;9.088;2023-04-24T10:15:16;1.10;;;0.93;;
8183;SDS011;4133;48.752;9.088;2023-04-24T10:17:45;2.40;;;0.80;;
8183;SDS011;4133;48.752;9.088;2023-04-24T10:20:17;1.13;;;0.90;;
8183;SDS011;4133;48.752;9.088;2023-04-24T10:22:43;1.17;;;0.80;;
8183;SDS011;4133;48.752;9.088;2023-04-24T10:25:11;1.40;;;1.00;;
8183;SDS011;4133;48.752;9.088;2023-04-24T10:27:37;1.10;;;1.00;;
8183;SDS011;4133;48.752;9.088;2023-04-24T10:30:03;1.85;;;0.90;;
8183;SDS011;4133;48.752;9.088;2023-04-24T10:32:30;1.85;;;1.00;;
8183;SDS011;4133;48.752;9.088;2023-04-24T10:34:56;1.50;;;0.90;;
8183;SDS011;4133;48.752;9.088;2023-04-24T10:37:23;1.13;;;0.80;;
8183;SDS011;4133;48.752;9.088;2023-04-24T10:39:49;4.05;;;1.05;;
8183;SDS011;4133;48.752;9.088;2023-04-24T10:42:19;4.72;;;1.55;;
8183;SDS011;4133;48.752;9.088;2023-04-24T10:44:47;1.40;;;1.20;;
8183;SDS011;4133;48.752;9.088;2023-04-24T10:47:13;2.90;;;0.90;;
8183;SDS011;4133;48.752;9.088;2023-04-24T10:49:39;3.20;;;1.75;;
8183;SDS011;4133;48.752;9.088;2023-04-24T10:52:06;1.40;;;1.00;;
8183;SDS011;4133;48.752;9.088;2023-04-24T10:54:42;1.47;;;1.10;;
8183;SDS011;4133;48.752;9.088;2023-04-24T10:59:43;3.10;;;1.00;;
8183;SDS011;4133;48.752;9.088;2023-04-24T11:02:09;3.20;;;0.90;;
8183;SDS011;4133;48.752;9.088;2023-04-24T11:04:35;0.77;;;0.70;;
8183;SDS011;4133;48.752;9.088;2023-04-24T11:07:02;1.13;;;0.87;;
8183;SDS011;4133;48.752;9.088;2023-04-24T11:09:32;1.30;;;1.10;;
8183;SDS011;4133;48.752;9.088;2023-04-24T11:12:03;1.20;;;0.90;;
8183;SDS011;4133;48.752;9.088;2023-04-24T11:20:09;1.13;;;0.90;;
8183;SDS011;4133;48.752;9.088;2023-04-24T11:22:36;1.80;;;0.90;;
8183;SDS011;4133;48.752;9.088;2023-04-24T11:25:04;2.67;;;1.07;;
8183;SDS011;4133;48.752;9.088;2023-04-24T11:27:32;5.22;;;1.88;;
8183;SDS011;4133;48.752;9.088;2023-04-24T11:30:04;2.10;;;1.40;;
8183;SDS011;4133;48.752;9.088;2023-04-24T11:32:33;1.23;;;1.00;;
8183;SDS011;4133;48.752;9.088;2023-04-24T11:35:04;1.48;;;1.10;;
8183;SDS011;4133;48.752;9.088;2023-04-24T11:37:41;1.20;;;1.10;;
8183;SDS011;4133;48.752;9.088;2023-04-24T11:40:11;3.00;;;1.20;;
8183;SDS011;4133;48.752;9.088;2023-04-24T11:42:51;0.82;;;0.82;;
8183;SDS011;4133;48.752;9.088;2023-04-24T11:45:24;1.13;;;1.02;;
8183;SDS011;4133;48.752;9.088;2023-04-24T11:47:50;0.93;;;0.80;;
8183;SDS011;4133;48.752;9.088;2023-04-24T11:50:18;1.20;;;1.10;;
8183;SDS011;4133;48.752;9.088;2023-04-24T11:52:45;1.75;;;0.98;;
8183;SDS011;4133;48.752;9.088;2023-04-24T11:57:48;1.90;;;1.10;;
8183;SDS011;4133;48.752;9.088;2023-04-24T12:00:15;1.30;;;1.20;;
8183;SDS011;4133;48.752;9.088;2023-04-24T12:02:41;0.98;;;0.98;;
8183;SDS011;4133;48.752;9.088;2023-04-24T12:05:07;1.60;;;0.90;;
8183;SDS011;4133;48.752;9.088;2023-04-24T12:07:41;0.88;;;0.88;;
8183;SDS011;4133;48.752;9.088;2023-04-24T12:10:08;1.25;;;1.10;;
8183;SDS011;4133;48.752;9.088;2023-04-24T12:12:34;0.90;;;0.90;;
8183;SDS011;4133;48.752;9.088;2023-04-24T12:15:00;1.05;;;0.98;;
8183;SDS011;4133;48.752;9.088;2023-04-24T12:17:27;1.30;;;1.20;;
8183;SDS011;4133;48.752;9.088;2023-04-24T12:19:56;1.20;;;1.10;;
8183;SDS011;4133;48.752;9.088;2023-04-24T12:22:23;1.00;;;1.00;;
8183;SDS011;4133;48.752;9.088;2023-04-24T12:24:59;1.67;;;1.20;;
8183;SDS011;4133;48.752;9.088;2023-04-24T12:27:26;1.67;;;1.10;;
8183;SDS011;4133;48.752;9.088;2023-04-24T12:29:52;1.83;;;1.70;;
8183;SDS011;4133;48.752;9.088;2023-04-24T12:32:19;1.80;;;1.00;;
8183;SDS011;4133;48.752;9.088;2023-04-24T12:34:45;2.23;;;1.10;;
8183;SDS011;4133;48.752;9.088;2023-04-24T12:37:11;1.33;;;1.23;;
8183;SDS011;4133;48.752;9.088;2023-04-24T12:39:37;3.77;;;1.20;;
8183;SDS011;4133;48.752;9.088;2023-04-24T12:42:03;1.03;;;1.00;;
8183;SDS011;4133;48.752;9.088;2023-04-24T12:46:59;1.70;;;1.30;;
8183;SDS011;4133;48.752;9.088;2023-04-24T12:49:25;1.53;;;1.10;;
8183;SDS011;4133;48.752;9.088;2023-04-24T12:51:51;1.10;;;0.97;;
8183;SDS011;4133;48.752;9.088;2023-04-24T12:54:18;1.47;;;0.90;;
8183;SDS011;4133;48.752;9.088;2023-04-24T12:56:44;0.90;;;0.80;;
8183;SDS011;4133;48.752;9.088;2023-04-24T12:59:10;1.10;;;1.10;;
8183;SDS011;4133;48.752;9.088;2023-04-24T13:01:36;1.20;;;1.10;;
8183;SDS011;4133;48.752;9.088;2023-04-24T13:04:05;0.83;;;0.83;;
8183;SDS011;4133;48.752;9.088;2023-04-24T13:06:31;1.83;;;1.10;;
8183;SDS011;4133;48.752;9.088;2023-04-24T13:08:57;2.47;;;1.20;;
8183;SDS011;4133;48.752;9.088;2023-04-24T13:11:23;10.00;;;2.20;;
8183;SDS011;4133;48.752;9.088;2023-04-24T13:13:50;1.50;;;1.40;;
8183;SDS011;4133;48.752;9.088;2023-04-24T13:16:16;2.90;;;1.70;;
8183;SDS011;4133;48.752;9.088;2023-04-24T13:18:42;1.40;;;1.30;;
8183;SDS011;4133;48.752;9.088;2023-04-24T13:21:08;1.20;;;1.10;;
8183;SDS011;4133;48.752;9.088;2023-04-24T13:23:34;1.60;;;1.20;;
8183;SDS011;4133;48.752;9.088;2023-04-24T13:26:00;1.33;;;1.00;;
8183;SDS011;4133;48.752;9.088;2023-04-24T13:28:27;1.23;;;1.20;;
8183;SDS011;4133;48.752;9.088;2023-04-24T13:30:54;1.93;;;1.20;;
8183;SDS011;4133;48.752;9.088;2023-04-24T13:33:20;1.40;;;1.30;;
8183;SDS011;4133;48.752;9.088;2023-04-24T13:35:46;1.50;;;1.40;;
8183;SDS011;4133;48.752;9.088;2023-04-24T13:38:12;2.03;;;1.23;;
8183;SDS011;4133;48.752;9.088;2023-04-24T13:40:38;1.90;;;1.50;;
8183;SDS011;4133;48.752;9.088;2023-04-24T13:43:04;1.30;;;1.13;;
8183;SDS011;4133;48.752;9.088;2023-04-24T13:45:30;1.40;;;1.20;;
8183;SDS011;4133;48.752;9.088;2023-04-24T13:47:56;2.10;;;1.10;;
8183;SDS011;4133;48.752;9.088;2023-04-24T13:50:22;1.10;;;1.10;;
8183;SDS011;4133;48.752;9.088;2023-04-24T13:52:48;1.13;;;1.13;;
8183;SDS011;4133;48.752;9.088;2023-04-24T13:55:14;1.73;;;1.30;;
8183;SDS011;4133;48.752;9.088;2023-04-24T13:57:40;1.70;;;1.10;;
8183;SDS011;4133;48.752;9.088;2023-04-24T14:00:06;1.30;;;1.20;;
8183;SDS011;4133;48.752;9.088;2023-04-24T14:02:35;1.40;;;1.30;;
8183;SDS011;4133;48.752;9.088;2023-04-24T14:05:01;1.20;;;1.20;;
8183;SDS011;4133;48.752;9.088;2023-04-24T14:07:28;1.40;;;1.30;;
8183;SDS011;4133;48.752;9.088;2023-04-24T14:09:55;1.97;;;1.50;;
8183;SDS011;4133;48.752;9.088;2023-04-24T14:12:21;1.80;;;1.30;;
8183;SDS011;4133;48.752;9.088;2023-04-24T14:14:47;1.73;;;1.30;;
8183;SDS011;4133;48.752;9.088;2023-04-24T14:17:14;1.30;;;1.20;;
8183;SDS011;4133;48.752;9.088;2023-04-24T14:19:40;3.83;;;1.50;;
8183;SDS011;4133;48.752;9.088;2023-04-24T14:22:06;2.03;;;1.40;;
8183;SDS011;4133;48.752;9.088;2023-04-24T14:24:32;2.50;;;1.43;;
8183;SDS011;4133;48.752;9.088;2023-04-24T14:26:58;0.90;;;0.90;;
8183;SDS011;4133;48.752;9.088;2023-04-24T14:29:24;1.20;;;1.10;;
8183;SDS011;4133;48.752;9.088;2023-04-24T14:31:50;1.60;;;0.90;;
8183;SDS011;4133;48.752;9.088;2023-04-24T14:34:16;0.93;;;0.93;;
8183;SDS011;4133;48.752;9.088;2023-04-24T14:36:43;1.02;;;0.93;;
8183;SDS011;4133;48.752;9.088;2023-04-24T14:39:09;2.10;;;1.20;;
8183;SDS011;4133;48.752;9.088;2023-04-24T14:41:35;1.30;;;1.20;;
8183;SDS011;4133;48.752;9.088;2023-04-24T14:44:10;1.23;;;1.13;;
8183;SDS011;4133;48.752;9.088;2023-04-24T14:46:36;1.38;;;1.10;;
8183;SDS011;4133;48.752;9.088;2023-04-24T14:49:02;2.17;;;1.30;;
8183;SDS011;4133;48.752;9.088;2023-04-24T14:51:28;1.55;;;1.30;;
8183;SDS011;4133;48.752;9.088;2023-04-24T14:53:55;1.58;;;1.23;;
8183;SDS011;4133;48.752;9.088;2023-04-24T14:56:21;1.30;;;1.20;;
8183;SDS011;4133;48.752;9.088;2023-04-24T14:58:48;2.05;;;1.48;;
8183;SDS011;4133;48.752;9.088;2023-04-24T15:01:14;2.17;;;1.48;;
8183;SDS011;4133;48.752;9.088;2023-04-24T15:03:40;2.63;;;1.38;;
8183;SDS011;4133;48.752;9.088;2023-04-24T15:06:06;2.80;;;1.60;;
8183;SDS011;4133;48.752;9.088;2023-04-24T15:08:32;1.60;;;1.50;;
8183;SDS011;4133;48.752;9.088;2023-04-24T15:10:58;2.20;;;1.50;;
8183;SDS011;4133;48.752;9.088;2023-04-24T15:13:24;1.67;;;1.30;;
8183;SDS011;4133;48.752;9.088;2023-04-24T15:15:50;2.15;;;1.65;;
8183;SDS011;4133;48.752;9.088;2023-04-24T15:18:16;2.13;;;1.40;;
8183;SDS011;4133;48.752;9.088;2023-04-24T15:20:42;1.70;;;1.60;;
8183;SDS011;4133;48.752;9.088;2023-04-24T15:23:08;1.60;;;1.47;;
8183;SDS011;4133;48.752;9.088;2023-04-24T15:25:35;2.93;;;1.60;;
8183;SDS011;4133;48.752;9.088;2023-04-24T15:28:01;9.60;;;1.60;;